Time;durP1;ratioP1;P1;durP2;ratioP2;P2;SDS_P1;SDS_P2;PMS_P1;PMS_P2;Temp;Humidity;BMP_temperature;BMP_pressure;BME280_temperature;BME280_humidity;BME280_pressure;Samples;Min_cycle;Max_cycle;Signal;HPM_P1;HPM_P2
2021/06/04 00:01:29;;;;;;;5.32;4.35;;;17.70;99.90;;;;;;5056211;28;20021;-73
2021/06/04 00:03:55;;;;;;;4.38;3.97;;;17.70;99.90;;;;;;5062318;28;20074;-73
2021/06/04 00:06:22;;;;;;;5.93;4.78;;;17.80;99.90;;;;;;5071700;28;20103;-73
2021/06/04 00:08:49;;;;;;;4.43;4.03;;;17.70;99.90;;;;;;5071739;28;20475;-73
2021/06/04 00:11:38;;;;;;;5.45;4.57;;;17.80;99.90;;;;;;5071596;28;20012;-73
2021/06/04 00:14:19;;;;;;;4.60;4.07;;;17.70;99.90;;;;;;5071811;28;20100;-73
2021/06/04 00:16:49;;;;;;;4.85;4.30;;;17.80;99.90;;;;;;5062270;28;20104;-73
2021/06/04 00:19:20;;;;;;;6.50;4.50;;;17.60;99.90;;;;;;5051585;28;20037;-73
2021/06/04 00:21:51;;;;;;;4.57;4.18;;;17.70;99.90;;;;;;5041088;28;20039;-73
2021/06/04 00:24:18;;;;;;;5.05;3.75;;;17.60;99.90;;;;;;5069850;28;20569;-73
2021/06/04 00:26:46;;;;;;;4.93;4.30;;;17.70;99.90;;;;;;5042024;28;20017;-73
2021/06/04 00:29:14;;;;;;;5.25;4.40;;;17.70;99.90;;;;;;5051183;28;20512;-73
2021/06/04 00:31:41;;;;;;;6.47;4.45;;;17.60;99.90;;;;;;5063338;28;20020;-73
2021/06/04 00:34:07;;;;;;;4.40;4.00;;;17.60;99.90;;;;;;5053568;28;20032;-73
2021/06/04 00:36:33;;;;;;;5.93;4.45;;;17.70;99.90;;;;;;5071436;28;20024;-73
2021/06/04 00:39:00;;;;;;;4.60;4.13;;;17.70;99.90;;;;;;5071454;28;20025;-73
2021/06/04 00:41:30;;;;;;;5.85;4.43;;;17.90;99.90;;;;;;5059110;28;20132;-73
2021/06/04 00:43:57;;;;;;;6.25;4.80;;;18.10;99.90;;;;;;5064921;28;20079;-73
2021/06/04 00:46:22;;;;;;;5.68;4.80;;;18.10;99.90;;;;;;5051327;28;20053;-73
2021/06/04 00:48:49;;;;;;;6.38;4.68;;;18.20;99.90;;;;;;5071044;28;20048;-73
2021/06/04 00:51:28;;;;;;;7.53;4.28;;;18.30;99.90;;;;;;5058407;28;20381;-74
2021/06/04 00:53:54;;;;;;;5.63;4.85;;;18.20;99.90;;;;;;5048245;28;20453;-74
2021/06/04 00:56:23;;;;;;;6.40;4.97;;;18.10;99.90;;;;;;5057988;28;20025;-74
2021/06/04 00:58:49;;;;;;;6.25;4.70;;;18.00;99.90;;;;;;5075372;28;20030;-73
2021/06/04 01:01:20;;;;;;;5.22;4.25;;;18.00;99.90;;;;;;5044345;28;20443;-74
2021/06/04 01:03:54;;;;;;;6.05;4.80;;;18.00;99.90;;;;;;5075257;28;20680;-74
2021/06/04 01:06:56;;;;;;;6.40;4.95;;;18.20;99.90;;;;;;5061629;28;20070;-75
2021/06/04 01:10:00;;;;;;;6.47;5.18;;;17.70;99.90;;;;;;5002235;28;20030;-74
2021/06/04 01:12:41;;;;;;;7.72;5.07;;;17.80;99.90;;;;;;4973422;28;20031;-75
2021/06/04 01:15:10;;;;;;;5.30;4.78;;;17.70;99.90;;;;;;4948014;28;20058;-75
2021/06/04 01:17:52;;;;;;;8.30;5.25;;;17.60;99.90;;;;;;5011387;28;20052;-75
2021/06/04 01:20:28;;;;;;;5.30;4.80;;;17.40;99.90;;;;;;5062860;28;20029;-74
2021/06/04 01:23:06;;;;;;;;;;;17.60;99.90;;;;;;5024309;28;20109;-74
2021/06/04 01:25:43;;;;;;;4.70;4.30;;;17.70;99.90;;;;;;5056324;28;19908;-74
2021/06/04 01:28:38;;;;;;;7.57;4.80;;;17.80;99.90;;;;;;5075572;28;20090;-74
2021/06/04 01:31:22;;;;;;;5.35;4.40;;;17.70;99.90;;;;;;5025307;28;20073;-73
2021/06/04 01:33:57;;;;;;;5.57;4.93;;;17.70;99.90;;;;;;5040580;28;20033;-74
2021/06/04 01:36:30;;;;;;;7.95;4.90;;;17.70;99.90;;;;;;5055202;28;20033;-72
2021/06/04 01:39:04;;;;;;;5.95;5.00;;;17.60;99.90;;;;;;5050539;28;20117;-73
2021/06/04 01:41:31;;;;;;;6.10;4.95;;;17.40;99.90;;;;;;5049666;28;20082;-73
2021/06/04 01:44:06;;;;;;;6.90;5.20;;;17.10;99.90;;;;;;5037265;28;20404;-73
2021/06/04 01:46:40;;;;;;;7.00;4.82;;;17.10;99.90;;;;;;5067840;28;20036;-74
2021/06/04 01:49:23;;;;;;;7.10;4.90;;;17.40;99.90;;;;;;5054485;28;20029;-74
2021/06/04 01:51:57;;;;;;;5.10;4.60;;;17.60;99.90;;;;;;5067627;28;20524;-73
2021/06/04 01:54:38;;;;;;;5.00;4.60;;;17.60;99.90;;;;;;5064561;28;20107;-75
2021/06/04 01:57:16;;;;;;;5.28;4.22;;;17.70;99.90;;;;;;5041750;28;20036;-75
2021/06/04 01:59:46;;;;;;;5.97;4.28;;;17.70;99.90;;;;;;5054105;28;20568;-75
2021/06/04 02:02:12;;;;;;;5.97;4.60;;;17.80;99.90;;;;;;5054232;28;20029;-75
2021/06/04 02:04:44;;;;;;;7.43;5.10;;;17.80;99.90;;;;;;5067485;28;20029;-73
2021/06/04 02:07:14;;;;;;;6.28;4.88;;;17.60;99.90;;;;;;5053880;28;20412;-74
2021/06/04 02:09:40;;;;;;;5.75;4.90;;;17.70;99.90;;;;;;5053859;28;20480;-74
2021/06/04 02:12:08;;;;;;;6.05;4.95;;;17.20;99.90;;;;;;5054967;28;20033;-73
2021/06/04 02:14:38;;;;;;;4.97;4.57;;;17.00;99.90;;;;;;5054231;28;20048;-72
2021/06/04 02:17:33;;;;;;;5.22;4.72;;;17.10;99.90;;;;;;5048105;28;20420;-72
2021/06/04 02:20:33;;;;;;;4.95;4.55;;;17.20;99.90;;;;;;5033017;28;20513;-72
2021/06/04 02:23:08;;;;;;;5.00;4.47;;;17.50;99.90;;;;;;5033774;28;20079;-73
2021/06/04 02:25:46;;;;;;;4.80;4.30;;;17.60;99.90;;;;;;5053255;28;20029;-73
2021/06/04 02:28:33;;;;;;;5.32;4.20;;;17.70;99.90;;;;;;5053335;28;20051;-73
2021/06/04 02:31:15;;;;;;;4.70;4.30;;;17.70;99.90;;;;;;5053362;28;20017;-73
2021/06/04 02:33:51;;;;;;;4.68;4.28;;;17.80;99.90;;;;;;5053600;28;20074;-72
2021/06/04 02:36:22;;;;;;;4.68;4.13;;;17.90;99.90;;;;;;5053293;28;20044;-72
2021/06/04 02:39:06;;;;;;;5.65;4.32;;;18.00;99.90;;;;;;5043756;28;20365;-73
2021/06/04 02:41:37;;;;;;;4.82;4.30;;;18.00;99.90;;;;;;5029194;28;20021;-72
2021/06/04 02:44:09;;;;;;;5.13;4.50;;;18.00;99.90;;;;;;5041203;28;20071;-72
2021/06/04 02:46:40;;;;;;;4.85;4.45;;;17.80;99.90;;;;;;5054120;28;20082;-73
2021/06/04 02:49:11;;;;;;;5.15;4.65;;;17.50;99.90;;;;;;5043316;28;20056;-72
2021/06/04 02:51:50;;;;;;;5.47;4.97;;;17.30;99.90;;;;;;5055549;28;20025;-72
2021/06/04 02:54:19;;;;;;;5.43;4.93;;;17.10;99.90;;;;;;5061445;28;20053;-74
2021/06/04 02:56:55;;;;;;;5.70;5.20;;;17.00;99.90;;;;;;5046229;28;20024;-73
2021/06/04 02:59:24;;;;;;;6.07;4.88;;;16.70;99.90;;;;;;5046349;28;20017;-73
2021/06/04 03:02:04;;;;;;;4.80;4.40;;;17.40;99.90;;;;;;5055663;28;20041;-73
2021/06/04 03:04:36;;;;;;;5.25;4.75;;;16.90;99.90;;;;;;5034302;28;20564;-72
2021/06/04 03:07:06;;;;;;;5.60;5.10;;;16.90;99.90;;;;;;5070650;22;20028;-73
2021/06/04 03:09:36;;;;;;;6.45;5.00;;;16.90;99.90;;;;;;5056301;28;20112;-73
2021/06/04 03:12:14;;;;;;;5.75;5.13;;;17.00;99.90;;;;;;5040799;28;20457;-73
2021/06/04 03:14:40;;;;;;;5.80;5.22;;;17.30;99.90;;;;;;5052534;28;20438;-73
2021/06/04 03:17:08;;;;;;;9.27;5.28;;;17.40;99.90;;;;;;5040554;28;20506;-73
2021/06/04 03:19:34;;;;;;;5.53;5.00;;;17.30;99.90;;;;;;5052090;28;20029;-73
2021/06/04 03:22:07;;;;;;;5.82;5.22;;;17.30;99.90;;;;;;5052496;28;20075;-73
2021/06/04 03:24:35;;;;;;;5.75;5.07;;;17.30;99.90;;;;;;5047565;28;20032;-72
2021/06/04 03:27:03;;;;;;;6.97;5.20;;;17.40;99.90;;;;;;5052317;28;20025;-72
2021/06/04 03:29:29;;;;;;;6.65;5.63;;;17.40;99.90;;;;;;5052093;28;20487;-72
2021/06/04 03:32:00;;;;;;;6.47;5.70;;;17.50;99.90;;;;;;5052656;28;20025;-72
2021/06/04 03:34:27;;;;;;;6.22;5.45;;;17.50;99.90;;;;;;5064059;28;20097;-73
2021/06/04 03:36:55;;;;;;;7.15;5.70;;;17.50;99.90;;;;;;5065705;28;20027;-72
2021/06/04 03:39:29;;;;;;;7.32;5.38;;;17.50;99.90;;;;;;5060812;28;20029;-73
2021/06/04 03:41:55;;;;;;;7.22;5.40;;;17.70;99.90;;;;;;5069422;28;20056;-73
2021/06/04 03:44:24;;;;;;;6.43;5.30;;;17.70;99.90;;;;;;5043995;28;20060;-72
2021/06/04 03:46:50;;;;;;;6.30;5.70;;;17.70;99.90;;;;;;5068690;28;20024;-75
2021/06/04 03:49:18;;;;;;;8.65;6.03;;;17.50;99.90;;;;;;5061951;28;20035;-72
2021/06/04 03:51:46;;;;;;;7.78;6.18;;;17.70;99.90;;;;;;5071988;28;20498;-72
2021/06/04 03:54:16;;;;;;;5.93;5.40;;;17.60;99.90;;;;;;5061475;28;20487;-73
2021/06/04 03:56:44;;;;;;;9.57;6.13;;;17.40;99.90;;;;;;5056631;28;20020;-73
2021/06/04 03:59:10;;;;;;;9.18;6.32;;;17.40;99.90;;;;;;5054080;28;20039;-73
2021/06/04 04:01:40;;;;;;;5.90;5.30;;;17.50;99.90;;;;;;5064506;28;20021;-72
2021/06/04 04:04:06;;;;;;;9.55;5.82;;;17.60;99.90;;;;;;5063838;28;20036;-72
2021/06/04 04:06:32;;;;;;;6.43;5.60;;;17.70;99.90;;;;;;5071811;28;20063;-73
2021/06/04 04:08:57;;;;;;;6.82;5.35;;;17.60;99.90;;;;;;5053833;28;20056;-73
2021/06/04 04:11:24;;;;;;;7.97;5.65;;;17.50;99.90;;;;;;5071589;28;20056;-73
2021/06/04 04:13:50;;;;;;;7.15;5.53;;;17.60;99.90;;;;;;5071852;28;20024;-73
2021/06/04 04:16:16;;;;;;;6.80;5.40;;;17.80;99.90;;;;;;5071516;28;20051;-72
2021/06/04 04:18:42;;;;;;;6.57;5.20;;;17.80;99.90;;;;;;5053781;28;20082;-72
2021/06/04 04:21:10;;;;;;;7.10;6.15;;;17.80;99.90;;;;;;5053508;28;20469;-72
2021/06/04 04:23:47;;;;;;;7.47;5.82;;;17.50;99.90;;;;;;5071564;28;20020;-72
2021/06/04 04:26:16;;;;;;;6.18;5.57;;;17.50;99.90;;;;;;5071527;28;20035;-72
2021/06/04 04:28:43;;;;;;;6.63;5.45;;;17.50;99.90;;;;;;5053407;28;20016;-73
2021/06/04 04:31:17;;;;;;;6.30;5.70;;;17.80;99.90;;;;;;5071125;28;20488;-72
2021/06/04 04:33:44;;;;;;;6.55;5.88;;;17.60;99.90;;;;;;5071648;28;20037;-72
2021/06/04 04:36:11;;;;;;;6.35;5.75;;;17.30;99.90;;;;;;5071729;28;20029;-72
2021/06/04 04:38:37;;;;;;;7.18;5.80;;;17.50;99.90;;;;;;5072588;28;20476;-73
2021/06/04 04:41:04;;;;;;;8.32;6.57;;;17.60;99.90;;;;;;5071689;28;20458;-73
2021/06/04 04:43:36;;;;;;;11.13;5.93;;;17.70;99.90;;;;;;5053286;28;20408;-73
2021/06/04 04:46:04;;;;;;;5.90;5.28;;;17.80;99.90;;;;;;5071283;28;20036;-72
2021/06/04 04:48:31;;;;;;;5.70;5.03;;;17.90;99.90;;;;;;5067323;28;20127;-73
2021/06/04 04:50:57;;;;;;;6.18;5.38;;;18.00;99.90;;;;;;5051174;28;20431;-73
2021/06/04 04:53:24;;;;;;;6.63;5.57;;;18.00;99.90;;;;;;5064579;28;20044;-73
2021/06/04 04:55:49;;;;;;;7.47;5.68;;;18.00;99.90;;;;;;5051076;28;20078;-73
2021/06/04 04:58:16;;;;;;;5.70;5.13;;;18.00;99.90;;;;;;5055183;28;20603;-72
2021/06/04 05:00:43;;;;;;;7.40;5.43;;;18.20;99.90;;;;;;5071083;28;20046;-72
2021/06/04 05:03:12;;;;;;;6.13;5.32;;;18.40;99.90;;;;;;5048617;28;20032;-73
2021/06/04 05:05:38;;;;;;;6.13;5.63;;;18.40;99.90;;;;;;5071049;28;20017;-73
2021/06/04 05:08:05;;;;;;;8.20;5.57;;;18.50;99.90;;;;;;5053115;28;20035;-72
2021/06/04 05:10:32;;;;;;;6.03;5.40;;;18.50;99.90;;;;;;5070832;28;20617;-72
2021/06/04 05:12:57;;;;;;;5.82;5.30;;;18.40;99.90;;;;;;5071121;28;20058;-72
2021/06/04 05:15:27;;;;;;;6.25;5.32;;;18.30;99.90;;;;;;5071095;28;20098;-72
2021/06/04 05:17:54;;;;;;;6.20;5.60;;;18.30;99.90;;;;;;5070939;28;20029;-72
2021/06/04 05:20:21;;;;;;;7.05;5.40;;;18.40;99.90;;;;;;5070924;28;20090;-72
2021/06/04 05:22:47;;;;;;;7.45;5.47;;;18.30;99.90;;;;;;5070814;28;20066;-72
2021/06/04 05:25:16;;;;;;;14.45;6.72;;;18.40;99.90;;;;;;5070725;28;20063;-73
2021/06/04 05:27:44;;;;;;;5.72;5.22;;;18.40;99.90;;;;;;5057425;28;20109;-72
2021/06/04 05:30:13;;;;;;;6.45;5.55;;;18.30;99.90;;;;;;5070754;28;20162;-72
2021/06/04 05:32:39;;;;;;;6.32;5.47;;;18.40;99.90;;;;;;5052666;28;20538;-73
2021/06/04 05:35:07;;;;;;;6.18;5.25;;;18.50;99.90;;;;;;5053147;28;20028;-72
2021/06/04 05:37:32;;;;;;;6.45;5.70;;;18.40;99.90;;;;;;5052881;28;20674;-72
2021/06/04 05:39:58;;;;;;;7.45;5.85;;;18.40;99.90;;;;;;5070586;28;20113;-72
2021/06/04 05:42:24;;;;;;;5.95;5.45;;;18.30;99.90;;;;;;5074175;28;20093;-73
2021/06/04 05:44:50;;;;;;;7.20;6.00;;;18.30;99.90;;;;;;5060622;28;20080;-73
2021/06/04 05:47:15;;;;;;;5.90;5.40;;;18.40;99.90;;;;;;5061542;28;20048;-73
2021/06/04 05:49:42;;;;;;;6.85;5.70;;;18.70;99.90;;;;;;5060484;28;20396;-73
2021/06/04 05:52:10;;;;;;;7.85;5.40;;;18.90;99.90;;;;;;5054467;28;20021;-73
2021/06/04 05:54:40;;;;;;;6.50;5.53;;;18.90;99.90;;;;;;5046146;28;20485;-73
2021/06/04 05:57:06;;;;;;;7.03;5.68;;;18.70;99.90;;;;;;5044075;28;20036;-73
2021/06/04 05:59:31;;;;;;;6.68;5.40;;;18.70;99.90;;;;;;5060532;28;20032;-73
2021/06/04 06:01:57;;;;;;;7.05;6.35;;;18.60;99.90;;;;;;5063895;28;20028;-73
2021/06/04 06:04:23;;;;;;;6.85;6.18;;;18.40;99.90;;;;;;5037199;28;20104;-75
2021/06/04 06:06:51;;;;;;;8.75;6.68;;;18.50;99.90;;;;;;5048516;28;20025;-74
2021/06/04 06:09:17;;;;;;;7.68;5.82;;;18.30;99.90;;;;;;5067433;28;20392;-75
2021/06/04 06:11:44;;;;;;;9.30;6.40;;;18.40;99.90;;;;;;5061929;28;20495;-75
2021/06/04 06:14:10;;;;;;;5.78;5.38;;;18.90;99.90;;;;;;5060308;28;20025;-75
2021/06/04 06:16:37;;;;;;;6.43;5.55;;;19.10;99.90;;;;;;5047914;28;20036;-75
2021/06/04 06:19:03;;;;;;;6.75;6.07;;;19.20;99.90;;;;;;5050101;28;20024;-73
2021/06/04 06:21:29;;;;;;;6.63;6.03;;;19.10;99.90;;;;;;5073741;28;20469;-73
2021/06/04 06:23:54;;;;;;;7.15;6.45;;;18.80;99.90;;;;;;5072348;28;20104;-73
2021/06/04 06:26:23;;;;;;;6.75;6.03;;;18.80;99.90;;;;;;5053546;28;20023;-73
2021/06/04 06:28:51;;;;;;;7.85;6.40;;;18.90;99.90;;;;;;5068419;28;20035;-73
2021/06/04 06:31:23;;;;;;;6.55;5.95;;;19.00;99.90;;;;;;5065228;28;20071;-73
2021/06/04 06:33:52;;;;;;;7.38;6.68;;;19.10;99.90;;;;;;5038040;28;20029;-73
2021/06/04 06:36:20;;;;;;;9.38;6.68;;;18.80;99.90;;;;;;5055489;28;20439;-73
2021/06/04 06:38:48;;;;;;;7.90;6.88;;;18.70;99.90;;;;;;5073449;28;20074;-72
2021/06/04 06:41:15;;;;;;;9.73;6.90;;;18.60;99.90;;;;;;5073212;28;20421;-73
2021/06/04 06:43:46;;;;;;;6.78;6.13;;;18.70;99.90;;;;;;5055202;28;20024;-73
2021/06/04 06:46:12;;;;;;;7.22;6.35;;;18.80;99.90;;;;;;5073428;28;20041;-73
2021/06/04 06:48:38;;;;;;;7.78;6.90;;;18.80;99.90;;;;;;5073171;28;20396;-73
2021/06/04 06:51:06;;;;;;;7.32;6.63;;;18.90;99.90;;;;;;5073123;28;20052;-73
2021/06/04 06:53:32;;;;;;;7.80;7.00;;;18.70;99.90;;;;;;5040825;28;20028;-73
2021/06/04 06:55:58;;;;;;;7.40;6.70;;;18.80;99.90;;;;;;5057495;28;20025;-73
2021/06/04 06:58:25;;;;;;;8.20;6.90;;;18.60;99.90;;;;;;5071562;28;20055;-73
2021/06/04 07:00:53;;;;;;;7.80;7.03;;;18.50;99.90;;;;;;5072090;28;20024;-73
2021/06/04 07:03:26;;;;;;;7.30;6.53;;;18.70;99.90;;;;;;5052756;28;20082;-73
2021/06/04 07:05:52;;;;;;;7.85;7.10;;;18.80;99.90;;;;;;5035071;28;20061;-73
2021/06/04 07:08:18;;;;;;;8.70;7.80;;;19.10;99.90;;;;;;5059541;28;20381;-73
2021/06/04 07:10:44;;;;;;;7.90;7.10;;;19.20;99.90;;;;;;5072691;28;20046;-73
2021/06/04 07:13:12;;;;;;;9.68;7.15;;;19.00;99.90;;;;;;5052848;28;20110;-73
2021/06/04 07:15:39;;;;;;;8.63;6.90;;;19.20;99.90;;;;;;5066230;28;20040;-73
2021/06/04 07:18:06;;;;;;;7.18;6.47;;;19.50;99.90;;;;;;5054894;28;20055;-73
2021/06/04 07:20:34;;;;;;;6.85;6.20;;;19.70;99.90;;;;;;5072350;28;20040;-73
2021/06/04 07:23:01;;;;;;;7.40;6.25;;;19.70;99.90;;;;;;5054709;28;20028;-72
2021/06/04 07:25:30;;;;;;;6.35;5.68;;;19.80;99.90;;;;;;5057858;28;20056;-73
2021/06/04 07:27:56;;;;;;;6.82;6.30;;;20.00;99.90;;;;;;5042865;28;20036;-73
2021/06/04 07:30:26;;;;;;;8.00;7.20;;;20.10;99.90;;;;;;5070822;28;20430;-73
2021/06/04 07:32:52;;;;;;;8.95;8.05;;;20.00;99.90;;;;;;5052477;28;20091;-73
2021/06/04 07:35:21;;;;;;;8.88;7.20;;;19.90;99.90;;;;;;5069078;28;20025;-73
2021/06/04 07:37:46;;;;;;;8.38;7.38;;;19.80;99.90;;;;;;5055670;28;20393;-73
2021/06/04 07:40:18;;;;;;;8.30;7.50;;;19.90;99.90;;;;;;5072035;28;20027;-74
2021/06/04 07:42:44;;;;;;;9.10;7.95;;;20.10;99.90;;;;;;5072214;28;20020;-73
2021/06/04 07:45:10;;;;;;;8.57;7.72;;;20.20;99.90;;;;;;5072152;28;20127;-73
2021/06/04 07:47:36;;;;;;;8.55;7.68;;;20.10;99.90;;;;;;5072065;28;20028;-73
2021/06/04 07:50:08;;;;;;;8.07;6.65;;;20.10;99.90;;;;;;5071955;28;20403;-73
2021/06/04 07:52:34;;;;;;;8.40;6.90;;;20.50;99.90;;;;;;5071936;28;20029;-73
2021/06/04 07:55:00;;;;;;;6.07;5.50;;;20.60;99.90;;;;;;5064186;28;20028;-73
2021/06/04 07:57:26;;;;;;;5.47;4.93;;;20.80;99.90;;;;;;5062322;28;20145;-73
2021/06/04 07:59:52;;;;;;;5.72;5.18;;;20.90;99.90;;;;;;5036319;28;20497;-73
2021/06/04 08:02:18;;;;;;;5.03;4.40;;;21.00;99.90;;;;;;5051878;28;20098;-74
2021/06/04 08:04:44;;;;;;;7.85;5.72;;;21.10;99.90;;;;;;5068397;28;20032;-73
2021/06/04 08:07:09;;;;;;;13.23;5.60;;;21.00;99.90;;;;;;5071600;28;20048;-74
2021/06/04 08:09:35;;;;;;;5.38;4.35;;;21.00;99.90;;;;;;5053659;28;20484;-73
2021/06/04 08:12:04;;;;;;;4.80;4.40;;;21.10;99.90;;;;;;5043669;28;20064;-73
2021/06/04 08:14:31;;;;;;;4.38;3.97;;;21.10;99.90;;;;;;5055465;28;20028;-73
2021/06/04 08:16:58;;;;;;;4.43;4.03;;;21.00;99.90;;;;;;5053515;28;20514;-73
2021/06/04 08:19:27;;;;;;;4.22;3.85;;;21.00;99.90;;;;;;5053866;28;20017;-73
2021/06/04 08:21:54;;;;;;;5.30;4.00;;;20.70;99.90;;;;;;5062828;28;20032;-73
2021/06/04 08:24:27;;;;;;;4.65;4.30;;;21.00;99.90;;;;;;5071443;28;20388;-73
2021/06/04 08:26:54;;;;;;;4.40;4.00;;;21.10;99.90;;;;;;5053622;28;20035;-73
2021/06/04 08:29:21;;;;;;;4.15;3.80;;;21.30;99.90;;;;;;5057864;28;20107;-73
2021/06/04 08:31:47;;;;;;;5.35;3.83;;;21.20;99.90;;;;;;5071658;28;20074;-73
2021/06/04 08:34:13;;;;;;;4.97;4.45;;;21.20;99.90;;;;;;5071590;28;20024;-73
2021/06/04 08:36:41;;;;;;;4.40;4.00;;;21.20;99.90;;;;;;5071378;28;20081;-73
2021/06/04 08:39:16;;;;;;;4.40;3.90;;;21.40;99.90;;;;;;5071111;28;20036;-73
2021/06/04 08:42:07;;;;;;;4.65;4.25;;;21.50;99.90;;;;;;5053412;28;20063;-73
2021/06/04 08:44:35;;;;;;;7.10;4.28;;;21.50;99.90;;;;;;5060620;28;20024;-73
2021/06/04 08:47:16;;;;;;;4.63;4.07;;;21.50;99.90;;;;;;5051110;28;20410;-73
2021/06/04 08:50:09;;;;;;;5.60;4.00;;;21.60;99.90;;;;;;5058275;28;20167;-73
2021/06/04 08:52:47;;;;;;;3.80;3.50;;;21.80;99.90;;;;;;5051366;28;20025;-73
2021/06/04 08:55:36;;;;;;;4.95;3.63;;;21.70;99.90;;;;;;5061864;28;20017;-73
2021/06/04 08:58:29;;;;;;;5.15;4.07;;;21.60;99.90;;;;;;5048887;28;20086;-74
2021/06/04 09:00:58;;;;;;;4.40;4.00;;;21.70;99.90;;;;;;5069538;28;20502;-73
2021/06/04 09:03:29;;;;;;;6.18;4.70;;;21.60;99.90;;;;;;5039304;28;20377;-73
2021/06/04 09:06:19;;;;;;;5.18;4.68;;;21.90;99.90;;;;;;5071142;28;20025;-73
2021/06/04 09:08:44;;;;;;;4.80;4.30;;;21.60;99.90;;;;;;5051343;28;20595;-73
2021/06/04 09:11:21;;;;;;;7.18;3.88;;;21.60;99.90;;;;;;5049425;28;20060;-73
2021/06/04 09:13:47;;;;;;;4.13;3.78;;;21.60;99.90;;;;;;5063096;28;20660;-73
2021/06/04 09:16:32;;;;;;;5.10;4.38;;;21.70;99.90;;;;;;5072775;28;20099;-73
2021/06/04 09:19:06;;;;;;;4.77;4.07;;;21.90;99.90;;;;;;5075002;28;20653;-73
2021/06/04 09:21:34;;;;;;;5.25;4.03;;;21.90;99.90;;;;;;5074927;28;20016;-73
2021/06/04 09:24:07;;;;;;;4.30;3.95;;;21.80;99.90;;;;;;5056883;28;20484;-73
2021/06/04 09:26:32;;;;;;;3.95;3.65;;;21.90;99.90;;;;;;5074784;28;20021;-73
2021/06/04 09:29:01;;;;;;;4.28;3.88;;;22.10;99.90;;;;;;5074713;28;20036;-74
2021/06/04 09:31:43;;;;;;;4.00;3.58;;;22.70;99.90;;;;;;5047338;28;20100;-73
2021/06/04 09:34:24;;;;;;;4.38;3.97;;;22.80;99.90;;;;;;5059584;28;20028;-73
2021/06/04 09:37:03;;;;;;;4.60;3.75;;;22.80;99.90;;;;;;5074356;28;20170;-73
2021/06/04 09:39:36;;;;;;;4.53;4.03;;;23.20;99.90;;;;;;5036431;28;20035;-73
2021/06/04 09:42:16;;;;;;;4.10;3.80;;;23.50;99.90;;;;;;5071340;28;20486;-73
2021/06/04 09:44:53;;;;;;;4.20;3.72;;;23.60;99.90;;;;;;5074490;28;20108;-73
2021/06/04 09:47:25;;;;;;;4.82;3.88;;;23.50;99.90;;;;;;5049828;28;20025;-73
2021/06/04 09:49:52;;;;;;;3.70;3.40;;;24.00;99.90;;;;;;5054609;28;20067;-73
2021/06/04 09:52:35;;;;;;;4.00;3.53;;;24.70;99.90;;;;;;5074370;28;20449;-73
2021/06/04 09:55:13;;;;;;;3.78;3.47;;;25.00;99.90;;;;;;5057785;28;20045;-73
2021/06/04 09:58:06;;;;;;;5.63;3.72;;;25.00;99.90;;;;;;5048512;28;20021;-73
2021/06/04 10:00:46;;;;;;;15.25;4.28;;;25.10;99.90;;;;;;5064879;28;20107;-73
2021/06/04 10:03:31;;;;;;;7.43;3.92;;;25.20;99.90;;;;;;5051990;28;20078;-73
2021/06/04 10:06:08;;;;;;;4.22;3.58;;;25.20;99.90;;;;;;5055971;28;20161;-73
2021/06/04 10:08:49;;;;;;;5.47;3.58;;;25.10;99.90;;;;;;5073858;28;20058;-73
2021/06/04 10:11:21;;;;;;;3.78;3.47;;;24.80;99.90;;;;;;5073919;28;20146;-73
2021/06/04 10:14:02;;;;;;;4.28;3.60;;;25.20;99.90;;;;;;5044427;28;20104;-73
2021/06/04 10:19:24;;;;;;;4.63;3.30;;;25.20;99.90;;;;;;5074069;28;20100;-73
2021/06/04 10:22:09;;;;;;;3.75;3.40;;;25.30;99.90;;;;;;5073903;28;20055;-73
2021/06/04 10:24:42;;;;;;;3.67;3.37;;;25.40;99.90;;;;;;5055821;28;20025;-73
2021/06/04 10:27:18;;;;;;;3.50;3.20;;;25.40;99.90;;;;;;5073687;28;20247;-73
2021/06/04 10:30:21;;;;;;;4.07;3.55;;;25.60;99.90;;;;;;5073548;28;20055;-73
2021/06/04 10:32:53;;;;;;;3.50;3.05;;;25.80;99.90;;;;;;4972704;28;20424;-73
2021/06/04 10:35:42;;;;;;;3.70;3.30;;;25.70;99.90;;;;;;5058834;28;20489;-74
2021/06/04 10:38:15;;;;;;;3.60;3.25;;;26.30;99.90;;;;;;5073542;28;20564;-74
2021/06/04 10:40:50;;;;;;;3.78;3.10;;;26.40;99.90;;;;;;5035946;28;20552;-73
2021/06/04 10:43:39;;;;;;;4.53;3.40;;;26.30;99.90;;;;;;5068171;28;20028;-74
2021/06/04 10:46:21;;;;;;;3.55;3.13;;;26.10;99.90;;;;;;5073460;28;20039;-74
2021/06/04 10:49:12;;;;;;;3.40;3.10;;;26.20;99.90;;;;;;5055415;28;20074;-73
2021/06/04 10:51:46;;;;;;;3.30;3.00;;;26.80;99.90;;;;;;5015217;28;20079;-74
2021/06/04 10:54:25;;;;;;;3.25;2.95;;;26.80;99.90;;;;;;5053236;28;20025;-74
2021/06/04 10:57:12;;;;;;;5.72;3.10;;;26.30;99.90;;;;;;5027422;28;20044;-73
2021/06/04 11:00:06;;;;;;;4.38;2.85;;;26.30;99.90;;;;;;5072859;28;20028;-74
2021/06/04 11:03:05;;;;;;;3.70;2.92;;;26.20;99.90;;;;;;5042713;28;20044;-73
2021/06/04 11:05:43;;;;;;;3.45;3.15;;;26.10;99.90;;;;;;5051646;28;20035;-73
2021/06/04 11:08:27;;;;;;;3.47;3.08;;;26.10;99.90;;;;;;5071269;28;20406;-74
2021/06/04 11:11:40;;;;;;;4.05;3.28;;;25.90;99.90;;;;;;5039095;28;20017;-74
2021/06/04 11:14:13;;;;;;;3.50;3.17;;;25.80;99.90;;;;;;5065127;28;20024;-73
2021/06/04 11:17:01;;;;;;;3.60;3.05;;;26.00;99.90;;;;;;5071339;28;20020;-73
2021/06/04 11:19:37;;;;;;;4.38;3.33;;;26.60;99.90;;;;;;5072546;28;20021;-74
2021/06/04 11:22:13;;;;;;;4.07;3.20;;;27.00;99.90;;;;;;5042495;28;20120;-73
2021/06/04 11:24:59;;;;;;;3.17;2.97;;;27.40;99.90;;;;;;5047119;28;20353;-74
2021/06/04 11:27:35;;;;;;;4.18;2.90;;;27.80;99.90;;;;;;5038107;28;20376;-73
2021/06/04 11:30:06;;;;;;;3.05;2.80;;;27.70;99.90;;;;;;5063874;28;20029;-73
2021/06/04 11:33:05;;;;;;;3.30;3.03;;;27.70;99.90;;;;;;5058852;28;20111;-73
2021/06/04 11:35:46;;;;;;;3.35;3.05;;;27.70;98.70;;;;;;5037416;28;20043;-73
2021/06/04 11:38:24;;;;;;;4.93;3.15;;;27.90;99.90;;;;;;5063745;28;20028;-73
2021/06/04 11:40:54;;;;;;;3.90;2.90;;;28.20;98.80;;;;;;5045834;28;20036;-74
2021/06/04 11:43:28;;;;;;;3.08;2.88;;;28.10;97.90;;;;;;5072225;28;20081;-74
2021/06/04 11:46:11;;;;;;;3.20;2.90;;;28.20;97.00;;;;;;5072296;28;20115;-74
2021/06/04 11:48:39;;;;;;;3.38;2.88;;;28.30;97.40;;;;;;5054163;28;20074;-73
2021/06/04 11:51:19;;;;;;;3.65;2.92;;;28.40;96.90;;;;;;5071890;28;20021;-73
2021/06/04 11:53:53;;;;;;;3.45;2.70;;;28.20;96.50;;;;;;5072130;28;20103;-73
2021/06/04 11:56:37;;;;;;;4.15;2.90;;;28.10;96.10;;;;;;5054717;28;20116;-74
2021/06/04 11:59:09;;;;;;;3.58;2.83;;;27.70;97.70;;;;;;5071696;28;20017;-74
2021/06/04 12:01:43;;;;;;;2.88;2.65;;;28.50;97.70;;;;;;5064857;28;20071;-73
2021/06/04 12:04:15;;;;;;;3.08;2.80;;;28.50;98.20;;;;;;5064500;28;20075;-73
2021/06/04 12:06:50;;;;;;;5.78;3.10;;;28.30;96.70;;;;;;5053858;28;20395;-73
2021/06/04 12:09:31;;;;;;;4.20;2.95;;;27.90;94.40;;;;;;5071641;28;20042;-74
2021/06/04 12:12:25;;;;;;;3.33;2.90;;;28.00;95.00;;;;;;5071930;28;20070;-74
2021/06/04 12:14:54;;;;;;;4.47;3.20;;;28.40;98.10;;;;;;5071642;28;20032;-73
2021/06/04 12:17:45;;;;;;;3.47;3.00;;;29.20;95.00;;;;;;5071369;28;20028;-73
2021/06/04 12:20:40;;;;;;;3.80;2.90;;;29.60;94.90;;;;;;5070613;28;20047;-74
2021/06/04 12:23:09;;;;;;;3.35;2.35;;;29.60;94.80;;;;;;5050410;28;20040;-74
2021/06/04 12:25:49;;;;;;;3.17;2.88;;;29.50;95.50;;;;;;5053409;28;20025;-74
2021/06/04 12:28:18;;;;;;;3.10;2.75;;;29.70;94.50;;;;;;5071751;28;20021;-74
2021/06/04 12:31:00;;;;;;;3.75;3.00;;;29.60;94.30;;;;;;5053702;28;20025;-73
2021/06/04 12:33:37;;;;;;;5.15;3.20;;;29.30;92.60;;;;;;5064947;28;20062;-74
2021/06/04 12:36:34;;;;;;;3.53;2.90;;;28.90;97.40;;;;;;5071509;28;20024;-73
2021/06/04 12:39:29;;;;;;;7.18;3.00;;;29.20;95.40;;;;;;5071356;28;20472;-74
2021/06/04 12:42:11;;;;;;;5.72;2.88;;;30.00;96.00;;;;;;5068068;28;20027;-73
2021/06/04 12:44:38;;;;;;;3.22;2.92;;;30.60;94.00;;;;;;5051445;28;20052;-74
2021/06/04 12:47:06;;;;;;;4.97;2.80;;;29.90;93.30;;;;;;5070270;28;20025;-74
2021/06/04 12:49:31;;;;;;;2.63;2.45;;;29.30;91.70;;;;;;5071131;28;20074;-74
2021/06/04 12:51:58;;;;;;;3.15;2.85;;;29.40;93.00;;;;;;5074411;28;20020;-73
2021/06/04 12:54:28;;;;;;;4.32;2.92;;;29.80;92.70;;;;;;5072921;28;20033;-74
2021/06/04 12:56:58;;;;;;;3.00;2.70;;;30.10;91.40;;;;;;5055459;28;20029;-75
2021/06/04 12:59:26;;;;;;;6.28;2.92;;;30.90;94.50;;;;;;5043893;28;20079;-74
2021/06/04 13:02:09;;;;;;;3.05;2.75;;;31.20;93.60;;;;;;5062670;28;20028;-74
2021/06/04 13:04:41;;;;;;;3.45;2.58;;;32.10;90.50;;;;;;5058858;28;20048;-74
2021/06/04 13:07:27;;;;;;;4.55;2.70;;;32.00;90.50;;;;;;5065625;28;20017;-74
2021/06/04 13:10:08;;;;;;;6.88;2.88;;;31.20;91.40;;;;;;5043699;28;20032;-74
2021/06/04 13:12:35;;;;;;;4.50;3.00;;;31.60;91.80;;;;;;5043930;28;20059;-74
2021/06/04 13:15:24;;;;;;;3.78;3.03;;;32.70;91.90;;;;;;5066860;28;20021;-74
2021/06/04 13:17:59;;;;;;;3.65;2.72;;;32.30;89.80;;;;;;5060082;28;20127;-74
2021/06/04 13:20:32;;;;;;;4.85;2.83;;;32.00;90.60;;;;;;5074718;28;20024;-74